Time;durP1;ratioP1;P1;durP2;ratioP2;P2;SDS_P1;SDS_P2;PMS_P1;PMS_P2;Temp;Humidity;BMP_temperature;BMP_pressure;BME280_temperature;BME280_humidity;BME280_pressure;Samples;Min_cycle;Max_cycle;Signal;HPM_P1;HPM_P2
2022/04/01 00:00:17;;;;;;;7.57;4.88;;;1.70;99.90;;;;;;5045562;28;20131;-42
2022/04/01 00:02:44;;;;;;;6.30;4.85;;;1.70;99.90;;;;;;5045256;28;20036;-42
2022/04/01 00:05:09;;;;;;;4.43;3.97;;;1.70;99.90;;;;;;5045347;28;20700;-43
2022/04/01 00:07:35;;;;;;;7.70;5.70;;;1.70;99.90;;;;;;5045614;28;20045;-43
2022/04/01 00:10:02;;;;;;;5.07;4.40;;;1.70;99.90;;;;;;5045466;28;20029;-42
2022/04/01 00:12:28;;;;;;;5.35;4.25;;;1.70;99.90;;;;;;5045652;28;20830;-43
2022/04/01 00:14:54;;;;;;;6.55;4.70;;;1.60;99.90;;;;;;5044903;28;20103;-43
2022/04/01 00:17:19;;;;;;;6.50;4.70;;;1.60;99.90;;;;;;5045451;28;20076;-44
2022/04/01 00:19:45;;;;;;;5.35;4.35;;;1.60;99.90;;;;;;5044879;28;20105;-44
2022/04/01 00:22:11;;;;;;;5.72;4.75;;;1.60;99.90;;;;;;5045337;28;20075;-42
2022/04/01 00:24:36;;;;;;;7.45;4.72;;;1.60;99.90;;;;;;5045604;28;20114;-42
2022/04/01 00:27:02;;;;;;;5.00;4.50;;;1.60;99.90;;;;;;5044828;28;20045;-42
2022/04/01 00:29:28;;;;;;;5.57;4.45;;;1.60;99.90;;;;;;5045167;28;20433;-43
2022/04/01 00:32:00;;;;;;;5.72;4.53;;;1.60;99.90;;;;;;5046011;28;20032;-42
2022/04/01 00:34:30;;;;;;;6.43;4.10;;;1.60;99.90;;;;;;5045322;28;20428;-43
2022/04/01 00:36:57;;;;;;;7.82;4.50;;;1.70;99.90;;;;;;5045490;28;20033;-42
2022/04/01 00:39:24;;;;;;;7.32;5.03;;;1.70;99.90;;;;;;5045044;28;20476;-43
2022/04/01 00:41:54;;;;;;;5.18;4.68;;;1.70;99.90;;;;;;5043947;28;20596;-42
2022/04/01 00:44:32;;;;;;;7.25;4.85;;;1.60;99.90;;;;;;5045642;28;20021;-43
2022/04/01 00:47:03;;;;;;;5.05;4.15;;;1.60;99.90;;;;;;5024953;28;20037;-44
2022/04/01 00:49:29;;;;;;;7.03;4.82;;;1.60;99.90;;;;;;5040335;28;20468;-43
2022/04/01 00:51:57;;;;;;;5.80;5.07;;;1.60;99.90;;;;;;5045314;28;20545;-42
2022/04/01 00:54:23;;;;;;;6.88;4.50;;;1.60;99.90;;;;;;5044743;28;20036;-43
2022/04/01 00:56:49;;;;;;;4.90;4.40;;;1.60;99.90;;;;;;5044270;28;20052;-43
2022/04/01 00:59:15;;;;;;;6.63;5.13;;;1.60;99.90;;;;;;5045089;28;20059;-44
2022/04/01 01:01:43;;;;;;;5.90;5.30;;;1.50;99.90;;;;;;5044621;28;20029;-44
2022/04/01 01:04:10;;;;;;;6.05;5.40;;;1.50;99.90;;;;;;5044504;28;20072;-43
2022/04/01 01:06:42;;;;;;;5.80;5.10;;;1.50;99.90;;;;;;5044722;28;20144;-42
2022/04/01 01:09:09;;;;;;;5.50;5.00;;;1.50;99.90;;;;;;5046206;28;20043;-43
2022/04/01 01:11:35;;;;;;;7.07;6.38;;;1.50;99.90;;;;;;5050888;28;20082;-42
2022/04/01 01:14:05;;;;;;;6.72;6.03;;;1.50;99.90;;;;;;5050915;28;20029;-43
2022/04/01 01:16:31;;;;;;;8.35;6.65;;;1.50;99.90;;;;;;5041173;28;20024;-42
2022/04/01 01:19:03;;;;;;;6.60;5.55;;;1.50;99.90;;;;;;5049935;28;20517;-43
2022/04/01 01:21:30;;;;;;;7.68;6.68;;;1.40;99.90;;;;;;5051621;28;20701;-43
2022/04/01 01:24:07;;;;;;;6.07;5.47;;;1.40;99.90;;;;;;5050946;28;20051;-42
2022/04/01 01:26:35;;;;;;;6.80;5.85;;;1.40;99.90;;;;;;5049452;28;20152;-43
2022/04/01 01:29:00;;;;;;;6.38;4.95;;;1.50;99.90;;;;;;5050771;28;20364;-42
2022/04/01 01:31:26;;;;;;;6.43;5.15;;;1.40;99.90;;;;;;5050351;28;20158;-43
2022/04/01 01:33:55;;;;;;;6.65;5.78;;;1.40;99.90;;;;;;5051400;28;20031;-42
2022/04/01 01:36:21;;;;;;;6.28;5.55;;;1.40;99.90;;;;;;5051219;28;20087;-42
2022/04/01 01:38:47;;;;;;;6.07;5.28;;;1.40;99.90;;;;;;5051240;28;20139;-42
2022/04/01 01:41:14;;;;;;;6.07;5.47;;;1.40;99.90;;;;;;5051595;28;20107;-43
2022/04/01 01:43:41;;;;;;;5.78;5.22;;;1.40;99.90;;;;;;5051700;28;20619;-42
2022/04/01 01:46:10;;;;;;;9.10;6.00;;;1.40;99.90;;;;;;5051174;28;20037;-43
2022/04/01 01:48:36;;;;;;;8.95;5.40;;;1.40;99.90;;;;;;5051457;28;20476;-43
2022/04/01 01:56:31;;;;;;;6.50;4.90;;;1.30;99.90;;;;;;5050616;28;20439;-44
2022/04/01 01:58:57;;;;;;;6.57;5.20;;;1.30;99.90;;;;;;5050385;28;20021;-43
2022/04/01 02:01:22;;;;;;;5.72;5.13;;;1.30;99.90;;;;;;5051297;28;20051;-42
2022/04/01 02:03:49;;;;;;;5.43;4.82;;;1.30;99.90;;;;;;5050417;28;20047;-42
2022/04/01 02:06:15;;;;;;;5.20;4.50;;;1.30;99.90;;;;;;5050274;28;20028;-42
2022/04/01 02:08:41;;;;;;;5.28;4.68;;;1.30;99.90;;;;;;5050653;28;20029;-41
2022/04/01 02:11:07;;;;;;;5.22;4.70;;;1.30;99.90;;;;;;5050916;28;20017;-42
2022/04/01 02:13:37;;;;;;;6.00;5.32;;;1.30;99.90;;;;;;5050303;28;20100;-43
2022/04/01 02:16:02;;;;;;;5.35;4.85;;;1.30;99.90;;;;;;5050935;28;20063;-44
2022/04/01 02:18:29;;;;;;;5.00;4.45;;;1.20;99.90;;;;;;5051026;28;20056;-43
2022/04/01 02:20:57;;;;;;;5.68;5.15;;;1.30;99.90;;;;;;5047640;28;20336;-45
2022/04/01 02:23:22;;;;;;;5.32;4.82;;;1.30;99.90;;;;;;5048097;28;20097;-44
2022/04/01 02:25:48;;;;;;;5.20;4.72;;;1.20;99.90;;;;;;5047460;28;20052;-43
2022/04/01 02:28:13;;;;;;;6.40;4.70;;;1.20;99.90;;;;;;5046669;28;20766;-42
2022/04/01 02:30:39;;;;;;;5.25;4.75;;;1.20;99.90;;;;;;5048401;28;20426;-43
2022/04/01 02:33:08;;;;;;;5.63;5.13;;;1.20;99.90;;;;;;5047154;28;20029;-42
2022/04/01 02:35:34;;;;;;;6.18;4.85;;;1.20;99.90;;;;;;5047447;28;20041;-43
2022/04/01 02:38:01;;;;;;;7.07;5.65;;;1.20;99.90;;;;;;5047153;28;20059;-44
2022/04/01 02:40:26;;;;;;;6.32;5.60;;;1.20;99.90;;;;;;5047821;28;20036;-42
2022/04/01 02:42:53;;;;;;;5.65;5.10;;;1.20;99.90;;;;;;5045988;28;20017;-43
2022/04/01 02:45:24;;;;;;;6.70;5.60;;;1.20;99.90;;;;;;5047706;28;20029;-43
2022/04/01 02:47:50;;;;;;;6.47;5.82;;;1.20;99.90;;;;;;5048023;28;20064;-43
2022/04/01 02:50:16;;;;;;;6.32;5.28;;;1.20;99.90;;;;;;5046670;28;20463;-43
2022/04/01 02:52:42;;;;;;;6.43;5.63;;;1.20;99.90;;;;;;5047655;28;20036;-42
2022/04/01 02:55:08;;;;;;;6.32;5.30;;;1.20;99.90;;;;;;5047201;28;20057;-43
2022/04/01 02:57:33;;;;;;;7.30;6.30;;;1.20;99.90;;;;;;5047195;28;20520;-43
2022/04/01 02:59:59;;;;;;;6.60;6.00;;;1.20;99.90;;;;;;5046974;28;20029;-43
2022/04/01 03:02:25;;;;;;;6.03;5.43;;;1.20;99.90;;;;;;5046815;28;20021;-43
2022/04/01 03:04:50;;;;;;;6.53;5.93;;;1.20;99.90;;;;;;5047080;28;20021;-44
2022/04/01 03:07:16;;;;;;;5.75;5.25;;;1.20;99.90;;;;;;5046912;28;20120;-44
2022/04/01 03:09:42;;;;;;;6.30;5.70;;;1.20;99.90;;;;;;5045776;28;20105;-43
2022/04/01 03:12:07;;;;;;;11.07;6.43;;;1.10;99.90;;;;;;5047925;28;20039;-43
2022/04/01 03:14:33;;;;;;;6.65;6.05;;;1.20;99.90;;;;;;5046883;28;20564;-42
2022/04/01 03:16:58;;;;;;;6.68;5.90;;;1.10;99.90;;;;;;5046290;28;20483;-44
2022/04/01 03:19:25;;;;;;;7.43;5.72;;;1.20;99.90;;;;;;5046446;28;20032;-41
2022/04/01 03:21:50;;;;;;;5.70;5.10;;;1.10;99.90;;;;;;5046227;28;20029;-43
2022/04/01 03:24:16;;;;;;;6.88;5.75;;;1.20;99.90;;;;;;5045743;28;20075;-41
2022/04/01 03:26:42;;;;;;;6.97;5.63;;;1.20;99.90;;;;;;5046499;28;20128;-44
2022/04/01 03:29:10;;;;;;;7.55;5.88;;;1.20;99.90;;;;;;5046508;28;20140;-43
2022/04/01 03:31:37;;;;;;;6.13;5.22;;;1.20;99.90;;;;;;5046330;28;20029;-42
2022/04/01 03:34:03;;;;;;;5.68;5.07;;;1.10;99.90;;;;;;5045965;28;20039;-44
2022/04/01 03:36:29;;;;;;;6.90;5.22;;;1.20;99.90;;;;;;5046413;28;20117;-42
2022/04/01 03:38:54;;;;;;;6.25;5.63;;;1.10;99.90;;;;;;5045964;28;20099;-43
2022/04/01 03:41:21;;;;;;;6.60;5.90;;;1.10;99.90;;;;;;5046607;28;20380;-42
2022/04/01 03:43:47;;;;;;;6.00;5.40;;;1.10;99.90;;;;;;5046418;28;20108;-43
2022/04/01 03:46:15;;;;;;;5.60;5.00;;;1.10;99.90;;;;;;5045951;28;20126;-42
2022/04/01 03:49:03;;;;;;;6.80;6.10;;;1.10;99.90;;;;;;5046780;28;20437;-43
2022/04/01 03:51:30;;;;;;;6.75;6.05;;;1.10;99.90;;;;;;5044823;28;20032;-41
2022/04/01 03:54:01;;;;;;;6.03;5.43;;;1.10;99.90;;;;;;5046587;28;20017;-43
2022/04/01 03:56:37;;;;;;;7.30;5.43;;;1.10;99.90;;;;;;5045582;28;20140;-42
2022/04/01 03:59:05;;;;;;;5.78;5.15;;;1.00;99.90;;;;;;5047754;28;20091;-42
2022/04/01 04:01:32;;;;;;;7.28;6.22;;;1.00;99.90;;;;;;5047103;28;20488;-46
2022/04/01 04:03:57;;;;;;;6.32;5.53;;;1.10;99.90;;;;;;5046308;28;20039;-43
2022/04/01 04:06:24;;;;;;;5.95;5.35;;;1.00;99.90;;;;;;5045471;28;20041;-40
2022/04/01 04:08:53;;;;;;;6.28;5.45;;;1.00;99.90;;;;;;5045598;28;20162;-42
2022/04/01 04:11:27;;;;;;;7.78;5.28;;;1.00;99.90;;;;;;5046124;28;20546;-43
2022/04/01 04:13:53;;;;;;;5.75;5.18;;;1.00;99.90;;;;;;5044879;28;20024;-42
2022/04/01 04:16:27;;;;;;;5.82;5.22;;;1.00;99.90;;;;;;5046060;28;20029;-42
2022/04/01 04:19:03;;;;;;;7.95;5.50;;;1.00;99.90;;;;;;5045195;28;20131;-44
2022/04/01 04:21:36;;;;;;;6.25;4.88;;;1.00;99.90;;;;;;5045512;28;20070;-44
2022/04/01 04:24:02;;;;;;;5.72;5.00;;;1.00;99.90;;;;;;5045745;28;20028;-43
2022/04/01 04:26:35;;;;;;;6.75;4.90;;;1.00;99.90;;;;;;5045799;28;20435;-43
2022/04/01 04:29:12;;;;;;;5.57;4.95;;;1.00;99.90;;;;;;5045473;28;20104;-43
2022/04/01 04:31:42;;;;;;;6.55;5.72;;;1.00;99.90;;;;;;5045843;28;20033;-43
2022/04/01 04:34:11;;;;;;;5.40;4.85;;;1.00;99.90;;;;;;5044759;28;20409;-43
2022/04/01 04:36:39;;;;;;;5.53;4.78;;;1.00;99.90;;;;;;5046195;28;20887;-44
2022/04/01 04:39:08;;;;;;;5.90;4.93;;;1.00;99.90;;;;;;5045363;28;20059;-43
2022/04/01 04:41:34;;;;;;;5.43;4.82;;;1.00;99.90;;;;;;5045225;28;20041;-43
2022/04/01 04:44:00;;;;;;;5.32;4.57;;;1.00;99.90;;;;;;5044658;28;20040;-44
2022/04/01 04:46:27;;;;;;;5.60;4.75;;;1.00;99.90;;;;;;5045577;28;20091;-44
2022/04/01 04:48:54;;;;;;;6.53;4.90;;;1.00;99.90;;;;;;5044552;28;20040;-47
2022/04/01 04:51:24;;;;;;;5.72;4.47;;;1.00;99.90;;;;;;5045712;28;20067;-43
2022/04/01 04:53:51;;;;;;;6.03;4.90;;;1.00;99.90;;;;;;5045665;28;20017;-43
2022/04/01 04:56:18;;;;;;;7.78;5.03;;;1.00;99.90;;;;;;5044706;28;20449;-42
2022/04/01 04:58:44;;;;;;;8.18;4.63;;;1.00;99.90;;;;;;5044841;28;20029;-44
2022/04/01 05:01:48;;;;;;;6.32;4.50;;;1.00;99.90;;;;;;5045687;28;20032;-42
2022/04/01 05:04:55;;;;;;;5.53;4.38;;;1.00;99.90;;;;;;5035872;28;20523;-43
2022/04/01 05:07:49;;;;;;;7.57;4.57;;;1.00;99.90;;;;;;5045635;28;20129;-42
2022/04/01 05:10:16;;;;;;;5.38;4.53;;;1.00;99.90;;;;;;5042164;28;20075;-43
2022/04/01 05:13:09;;;;;;;6.43;4.63;;;1.00;99.90;;;;;;5044134;28;20012;-43
2022/04/01 05:15:39;;;;;;;6.75;5.22;;;1.00;99.90;;;;;;5044186;28;20029;-43
2022/04/01 05:18:30;;;;;;;4.90;4.15;;;0.90;99.90;;;;;;5044626;28;20380;-43
2022/04/01 05:21:01;;;;;;;5.22;4.40;;;1.00;99.90;;;;;;5044733;28;20045;-44
2022/04/01 05:23:56;;;;;;;4.57;4.07;;;1.00;99.90;;;;;;5043711;28;20040;-43
2022/04/01 05:26:38;;;;;;;5.82;4.25;;;1.00;99.90;;;;;;5038697;28;20432;-43
2022/04/01 05:29:07;;;;;;;5.50;4.10;;;1.00;99.90;;;;;;5043898;28;20044;-41
2022/04/01 05:31:35;;;;;;;5.25;4.00;;;1.00;99.90;;;;;;5043895;28;20021;-42
2022/04/01 05:34:13;;;;;;;4.15;3.75;;;1.00;99.90;;;;;;5043972;28;20127;-43
2022/04/01 05:36:40;;;;;;;5.82;3.95;;;1.00;99.90;;;;;;5025086;28;20039;-44
2022/04/01 05:39:06;;;;;;;5.50;3.78;;;1.00;99.90;;;;;;5036076;28;20064;-41
2022/04/01 05:41:32;;;;;;;4.88;3.92;;;1.00;99.90;;;;;;5043238;28;20068;-44
2022/04/01 05:43:58;;;;;;;4.78;4.25;;;1.00;99.90;;;;;;5042350;28;20061;-43
2022/04/01 05:46:25;;;;;;;6.97;3.63;;;1.00;99.90;;;;;;5043460;28;20128;-40
2022/04/01 05:48:53;;;;;;;5.30;3.50;;;1.00;99.90;;;;;;5042932;28;20021;-42
2022/04/01 05:51:19;;;;;;;5.80;4.03;;;1.00;99.90;;;;;;5043587;28;20025;-43
2022/04/01 05:53:50;;;;;;;4.97;4.10;;;1.00;99.90;;;;;;5042973;28;20029;-44
2022/04/01 05:56:16;;;;;;;7.68;4.25;;;1.00;99.90;;;;;;5044120;28;20497;-43
2022/04/01 05:58:42;;;;;;;6.20;3.88;;;1.10;99.90;;;;;;5046278;28;20052;-44
2022/04/01 06:01:45;;;;;;;6.82;4.97;;;1.10;99.90;;;;;;5047860;28;20037;-43
2022/04/01 06:04:19;;;;;;;4.60;3.63;;;1.10;99.90;;;;;;5047264;28;20056;-43
2022/04/01 06:06:47;;;;;;;6.68;4.35;;;1.10;99.90;;;;;;5046245;28;20041;-43
2022/04/01 06:09:57;;;;;;;5.88;4.40;;;1.10;99.90;;;;;;5048093;28;20089;-43
2022/04/01 06:12:51;;;;;;;5.72;4.10;;;1.10;99.90;;;;;;5034595;28;20087;-42
2022/04/01 06:15:24;;;;;;;4.82;3.72;;;1.10;99.90;;;;;;5048746;28;20057;-43
2022/04/01 06:18:14;;;;;;;4.78;4.00;;;1.10;99.90;;;;;;5048027;28;20029;-43
2022/04/01 06:20:43;;;;;;;4.13;3.70;;;1.10;99.90;;;;;;5047014;28;20567;-43
2022/04/01 06:23:40;;;;;;;6.85;4.10;;;1.10;99.90;;;;;;5048324;28;20040;-42
2022/04/01 06:26:08;;;;;;;5.13;4.07;;;1.10;99.90;;;;;;5048095;28;20033;-42
2022/04/01 06:28:43;;;;;;;6.35;4.10;;;1.10;99.90;;;;;;5046537;28;20126;-42
2022/04/01 06:31:11;;;;;;;4.95;3.80;;;1.20;99.90;;;;;;5047791;28;20029;-43
2022/04/01 06:33:53;;;;;;;4.82;3.28;;;1.20;99.90;;;;;;5046619;28;20037;-42
2022/04/01 06:36:29;;;;;;;3.97;3.35;;;1.20;99.90;;;;;;5047475;28;20115;-43
2022/04/01 06:39:05;;;;;;;5.60;3.78;;;1.20;99.90;;;;;;5047753;28;20044;-43
2022/04/01 06:41:40;;;;;;;4.38;3.50;;;1.20;99.90;;;;;;5046358;28;20354;-43
2022/04/01 06:44:05;;;;;;;5.65;4.30;;;1.30;99.90;;;;;;5047597;28;20052;-43
2022/04/01 06:46:31;;;;;;;4.50;3.72;;;1.30;99.90;;;;;;5047226;28;20122;-44
2022/04/01 06:49:07;;;;;;;5.13;3.75;;;1.30;99.90;;;;;;5046169;28;20533;-43
2022/04/01 06:51:37;;;;;;;7.07;3.47;;;1.30;99.90;;;;;;5047021;28;20036;-42
2022/04/01 06:54:02;;;;;;;10.55;4.47;;;1.30;99.90;;;;;;5047376;28;20111;-44
2022/04/01 06:56:29;;;;;;;6.28;4.03;;;1.30;99.90;;;;;;5046153;28;20056;-44
2022/04/01 06:58:55;;;;;;;5.78;4.13;;;1.30;99.90;;;;;;5047063;28;20036;-43
2022/04/01 07:01:20;;;;;;;6.03;4.30;;;1.30;99.90;;;;;;5045988;28;20137;-42
2022/04/01 07:03:46;;;;;;;5.13;3.97;;;1.40;99.90;;;;;;5046899;28;20063;-43
2022/04/01 07:06:11;;;;;;;4.35;3.95;;;1.40;99.90;;;;;;5046832;28;20040;-43
2022/04/01 07:08:37;;;;;;;5.20;4.07;;;1.50;99.90;;;;;;5046008;28;20036;-44
2022/04/01 07:11:02;;;;;;;5.78;4.22;;;1.50;99.90;;;;;;5046859;28;20067;-43
2022/04/01 07:13:28;;;;;;;5.88;4.47;;;1.50;99.90;;;;;;5046850;28;20538;-44
2022/04/01 07:15:54;;;;;;;5.53;4.05;;;1.50;99.90;;;;;;5045925;28;20603;-43
2022/04/01 07:18:21;;;;;;;6.80;3.95;;;1.50;99.90;;;;;;5046888;28;20031;-43
2022/04/01 07:20:47;;;;;;;4.93;3.97;;;1.50;99.90;;;;;;5046259;28;20509;-44
2022/04/01 07:23:13;;;;;;;6.35;3.65;;;1.60;99.90;;;;;;5045871;28;20021;-43
2022/04/01 07:25:39;;;;;;;5.70;3.67;;;1.50;99.90;;;;;;5047127;28;20044;-43
2022/04/01 07:28:05;;;;;;;4.82;4.05;;;1.60;99.90;;;;;;5046556;28;20033;-43
2022/04/01 07:30:31;;;;;;;5.40;3.80;;;1.60;99.90;;;;;;5045931;28;20040;-42
2022/04/01 07:32:58;;;;;;;5.68;3.83;;;1.60;99.90;;;;;;5045239;28;20016;-43
2022/04/01 07:35:29;;;;;;;5.13;3.90;;;1.60;99.90;;;;;;5046913;28;20017;-43
2022/04/01 07:37:55;;;;;;;5.68;3.63;;;1.60;99.90;;;;;;5045190;28;20170;-44
2022/04/01 07:40:22;;;;;;;4.60;3.70;;;1.60;99.90;;;;;;5046468;28;20028;-43
2022/04/01 07:42:48;;;;;;;5.70;4.50;;;1.60;99.90;;;;;;5045581;28;20044;-42
2022/04/01 07:45:14;;;;;;;5.00;3.20;;;1.70;99.90;;;;;;5045908;28;20041;-44
2022/04/01 07:47:44;;;;;;;3.75;3.15;;;1.70;99.90;;;;;;5045977;28;20742;-42
2022/04/01 07:50:10;;;;;;;4.68;3.50;;;1.80;99.90;;;;;;5056629;28;20025;-43
2022/04/01 07:52:40;;;;;;;5.07;3.30;;;1.80;99.90;;;;;;5057762;28;20072;-43
2022/04/01 07:55:07;;;;;;;4.80;3.10;;;1.90;99.90;;;;;;5046153;28;20087;-44
2022/04/01 07:57:33;;;;;;;5.00;3.40;;;1.90;99.90;;;;;;5045385;28;20481;-42
2022/04/01 07:59:58;;;;;;;5.07;3.10;;;1.90;99.90;;;;;;5045527;28;20040;-42
2022/04/01 08:02:24;;;;;;;4.53;2.88;;;1.90;99.90;;;;;;5059185;28;20017;-43
2022/04/01 08:04:49;;;;;;;4.50;2.70;;;2.00;99.90;;;;;;5044394;28;20027;-43
2022/04/01 08:07:16;;;;;;;4.70;2.92;;;2.10;99.90;;;;;;5044145;28;20080;-43
2022/04/01 08:09:42;;;;;;;3.10;2.42;;;2.10;99.90;;;;;;5044480;28;20024;-43
2022/04/01 08:12:10;;;;;;;2.55;2.10;;;2.20;99.90;;;;;;5045510;28;20044;-43
2022/04/01 08:14:37;;;;;;;3.78;2.63;;;2.30;99.90;;;;;;5045187;28;20036;-41
2022/04/01 08:17:04;;;;;;;2.65;2.10;;;2.30;99.90;;;;;;5045546;28;20040;-43
2022/04/01 08:19:30;;;;;;;3.03;2.40;;;2.40;99.90;;;;;;5043815;28;20456;-42
2022/04/01 08:21:57;;;;;;;2.35;2.15;;;2.30;99.90;;;;;;5045237;28;20111;-43
2022/04/01 08:24:24;;;;;;;2.45;1.83;;;2.30;99.90;;;;;;5046328;28;20100;-43
2022/04/01 08:26:50;;;;;;;2.40;2.00;;;2.30;99.90;;;;;;5044418;28;20373;-42
2022/04/01 08:29:16;;;;;;;3.63;2.28;;;2.30;99.90;;;;;;5045037;28;20040;-43
2022/04/01 08:31:42;;;;;;;2.58;2.10;;;2.30;99.90;;;;;;5044768;28;20376;-42
2022/04/01 08:34:08;;;;;;;2.95;2.15;;;2.30;99.90;;;;;;5045368;28;20120;-43
2022/04/01 08:36:34;;;;;;;3.20;2.15;;;2.40;99.90;;;;;;5045483;28;20025;-42
2022/04/01 08:38:59;;;;;;;4.63;1.92;;;2.40;99.90;;;;;;5044250;28;20044;-43
2022/04/01 08:41:25;;;;;;;2.50;1.83;;;2.50;99.90;;;;;;5044932;28;20116;-43
2022/04/01 08:43:52;;;;;;;3.05;2.00;;;2.60;99.90;;;;;;5044350;28;20024;-43
2022/04/01 08:46:20;;;;;;;3.90;1.85;;;2.60;99.90;;;;;;5043525;28;20033;-43
2022/04/01 08:48:46;;;;;;;3.28;2.33;;;2.70;99.90;;;;;;5045159;28;20860;-43
2022/04/01 08:51:13;;;;;;;2.03;1.83;;;2.70;99.90;;;;;;5042134;28;20021;-43
2022/04/01 08:53:41;;;;;;;2.00;1.70;;;2.70;99.90;;;;;;5043528;28;20048;-43
2022/04/01 08:56:08;;;;;;;4.50;2.17;;;2.70;99.90;;;;;;5042761;28;20078;-42
2022/04/01 08:58:40;;;;;;;4.40;2.25;;;2.80;99.90;;;;;;5043549;28;20033;-43
2022/04/01 09:01:06;;;;;;;3.53;2.00;;;2.80;99.90;;;;;;5043058;28;20053;-44
2022/04/01 09:03:34;;;;;;;2.95;1.95;;;2.90;99.90;;;;;;5043134;28;20025;-43
2022/04/01 09:06:03;;;;;;;4.72;2.13;;;2.90;99.90;;;;;;5042839;28;20499;-43
2022/04/01 09:08:33;;;;;;;2.83;2.00;;;3.00;99.90;;;;;;5043642;28;20037;-42
2022/04/01 09:11:06;;;;;;;3.97;2.13;;;3.00;99.90;;;;;;5044685;28;20041;-43
2022/04/01 09:13:46;;;;;;;2.30;2.10;;;3.10;99.90;;;;;;5044482;28;20061;-42
2022/04/01 09:16:26;;;;;;;2.95;2.28;;;3.10;99.90;;;;;;5044450;28;20013;-44
2022/04/01 09:18:54;;;;;;;2.42;2.10;;;3.20;99.90;;;;;;5044316;28;20114;-43
2022/04/01 09:21:25;;;;;;;3.75;2.42;;;3.20;99.90;;;;;;5044934;28;20100;-42
2022/04/01 09:23:50;;;;;;;4.35;2.83;;;3.30;99.90;;;;;;5054799;28;20056;-42
2022/04/01 09:26:21;;;;;;;3.90;2.78;;;3.40;99.90;;;;;;5052801;28;20060;-44
2022/04/01 09:28:46;;;;;;;3.42;2.92;;;3.50;99.90;;;;;;5045174;28;20025;-43
2022/04/01 09:31:15;;;;;;;5.85;2.67;;;3.60;99.90;;;;;;5046454;28;20021;-43
2022/04/01 09:33:47;;;;;;;5.70;2.67;;;3.70;99.90;;;;;;5047724;28;20099;-44
2022/04/01 09:36:36;;;;;;;4.30;2.72;;;3.70;99.90;;;;;;5048313;28;20027;-43
2022/04/01 09:39:02;;;;;;;4.43;3.35;;;3.70;99.90;;;;;;5048483;28;20021;-43
2022/04/01 09:41:49;;;;;;;4.00;3.30;;;3.70;99.90;;;;;;5048775;28;20106;-43
2022/04/01 09:44:17;;;;;;;3.92;2.88;;;3.70;99.90;;;;;;5047971;28;20627;-42
2022/04/01 09:46:48;;;;;;;2.92;2.58;;;3.80;99.90;;;;;;5047932;28;20079;-42
2022/04/01 09:49:27;;;;;;;3.08;2.78;;;3.90;99.90;;;;;;5049034;28;20155;-42
2022/04/01 09:51:53;;;;;;;4.53;3.08;;;4.00;99.90;;;;;;5046703;28;20113;-45
2022/04/01 09:54:24;;;;;;;4.75;3.15;;;3.90;99.90;;;;;;5048410;28;20025;-43
2022/04/01 09:56:54;;;;;;;4.45;3.38;;;3.80;99.90;;;;;;5048329;28;20339;-42
2022/04/01 09:59:21;;;;;;;4.40;3.00;;;3.80;99.90;;;;;;5047965;28;20029;-42
2022/04/01 10:01:47;;;;;;;5.28;3.67;;;3.70;99.90;;;;;;5047605;28;20025;-44
2022/04/01 10:04:13;;;;;;;5.57;3.22;;;3.70;99.90;;;;;;5046596;28;20025;-43
2022/04/01 10:06:41;;;;;;;5.72;3.47;;;3.70;99.90;;;;;;5047845;28;20472;-43
2022/04/01 10:09:10;;;;;;;4.93;3.40;;;3.80;99.90;;;;;;5046386;28;20036;-42
2022/04/01 10:11:38;;;;;;;5.13;3.33;;;3.80;99.90;;;;;;5029582;28;20758;-41
2022/04/01 10:14:08;;;;;;;5.90;3.55;;;3.80;99.90;;;;;;5047099;28;20976;-43
2022/04/01 10:16:41;;;;;;;15.27;4.43;;;3.90;99.90;;;;;;5047854;28;20033;-42
2022/04/01 10:19:11;;;;;;;3.50;3.20;;;3.90;99.90;;;;;;5047241;28;20505;-43
2022/04/01 10:21:40;;;;;;;5.10;3.47;;;3.90;99.90;;;;;;5048290;28;20033;-43
2022/04/01 10:24:35;;;;;;;5.70;3.90;;;4.00;99.90;;;;;;5047046;28;20025;-43
2022/04/01 10:27:04;;;;;;;8.43;4.10;;;4.00;99.90;;;;;;5046204;28;20095;-43
2022/04/01 10:29:30;;;;;;;5.25;3.50;;;4.00;99.90;;;;;;5047849;28;20569;-43
2022/04/01 10:32:39;;;;;;;4.57;3.80;;;4.10;99.90;;;;;;5066418;28;20114;-42
2022/04/01 10:35:07;;;;;;;4.90;3.75;;;4.10;99.90;;;;;;5043723;28;20029;-43
2022/04/01 10:37:34;;;;;;;7.47;5.07;;;4.20;99.90;;;;;;5051293;28;20051;-43
2022/04/01 10:40:07;;;;;;;5.50;4.03;;;4.20;99.90;;;;;;5049766;28;20064;-42
2022/04/01 10:42:34;;;;;;;;;;;4.20;99.90;;;;;;5050620;28;20068;-44
2022/04/01 10:45:03;;;;;;;5.68;4.25;;;4.10;99.90;;;;;;5048766;28;19908;-44
2022/04/01 10:53:37;;;;;;;6.55;4.50;;;3.90;99.90;;;;;;5047143;28;20083;-43
2022/04/01 10:56:24;;;;;;;6.50;5.00;;;3.90;99.90;;;;;;5046845;28;20053;-42
2022/04/01 10:59:16;;;;;;;8.57;5.30;;;3.90;99.90;;;;;;5046500;28;20031;-42
2022/04/01 11:01:43;;;;;;;7.07;4.68;;;3.90;99.90;;;;;;5045863;28;20064;-43
2022/04/01 11:04:24;;;;;;;6.18;4.78;;;3.90;99.90;;;;;;5047292;28;20035;-43
2022/04/01 11:07:00;;;;;;;6.40;4.40;;;4.00;99.90;;;;;;5046951;28;20153;-43
2022/04/01 11:09:36;;;;;;;8.43;4.78;;;4.10;99.90;;;;;;5046619;28;20025;-43
2022/04/01 11:12:21;;;;;;;6.43;4.35;;;4.20;99.90;;;;;;5046693;28;20398;-44
2022/04/01 11:15:16;;;;;;;6.40;4.90;;;4.40;99.90;;;;;;5045802;28;20144;-43
2022/04/01 11:17:45;;;;;;;6.03;4.55;;;4.50;99.90;;;;;;5046662;28;20025;-43
2022/04/01 11:20:14;;;;;;;5.40;4.35;;;4.50;99.90;;;;;;5047381;28;20024;-43
2022/04/01 11:23:00;;;;;;;5.90;5.05;;;4.60;99.90;;;;;;5043276;28;20483;-42
2022/04/01 11:25:31;;;;;;;6.90;4.57;;;4.70;99.90;;;;;;5047331;28;20016;-42
2022/04/01 11:28:05;;;;;;;7.07;4.28;;;4.70;99.90;;;;;;5046179;28;20118;-43
2022/04/01 11:30:33;;;;;;;8.02;4.80;;;4.70;99.90;;;;;;5045824;28;20431;-41
2022/04/01 11:33:03;;;;;;;5.90;4.80;;;4.70;99.90;;;;;;5046067;28;20056;-43
2022/04/01 11:35:30;;;;;;;8.55;4.88;;;4.70;99.90;;;;;;5046515;28;20143;-43
2022/04/01 11:37:58;;;;;;;7.13;4.78;;;4.70;99.90;;;;;;5045625;28;20021;-43
2022/04/01 11:40:33;;;;;;;6.45;4.85;;;4.70;99.90;;;;;;5046189;28;20709;-43
2022/04/01 11:43:04;;;;;;;9.13;5.22;;;4.70;99.90;;;;;;5045749;28;20063;-43
2022/04/01 11:45:37;;;;;;;7.15;5.45;;;4.70;99.90;;;;;;5046230;28;20040;-44
2022/04/01 11:48:17;;;;;;;6.63;5.30;;;4.60;99.90;;;;;;5046103;28;20059;-43
2022/04/01 11:50:45;;;;;;;5.78;4.93;;;4.60;99.90;;;;;;5045196;28;20013;-44
2022/04/01 11:53:24;;;;;;;7.93;5.85;;;4.70;99.90;;;;;;5046377;28;20494;-44
2022/04/01 11:55:50;;;;;;;9.77;5.75;;;4.70;99.90;;;;;;5045118;28;20037;-43
2022/04/01 11:58:18;;;;;;;7.97;5.68;;;4.80;99.90;;;;;;5046034;28;20036;-43
2022/04/01 12:00:44;;;;;;;5.95;5.00;;;4.70;99.90;;;;;;5045547;28;20492;-42
2022/04/01 12:03:13;;;;;;;7.55;5.80;;;4.70;99.90;;;;;;5046314;28;20017;-43
2022/04/01 12:05:41;;;;;;;7.70;5.18;;;4.60;99.90;;;;;;5045014;28;20070;-42
2022/04/01 12:10:59;;;;;;;7.72;5.30;;;4.70;99.90;;;;;;5044335;28;20108;-43
2022/04/01 12:13:27;;;;;;;7.40;5.47;;;4.80;99.90;;;;;;5046191;28;20106;-43
2022/04/01 12:15:54;;;;;;;7.30;5.43;;;4.80;99.90;;;;;;5045561;28;20025;-43
2022/04/01 12:18:21;;;;;;;6.63;5.55;;;4.80;99.90;;;;;;5045760;28;20047;-43
2022/04/01 12:20:50;;;;;;;8.02;5.50;;;4.80;99.90;;;;;;5045119;28;20039;-44
2022/04/01 12:23:17;;;;;;;10.45;5.80;;;4.90;99.90;;;;;;5045621;28;20024;-41
2022/04/01 12:25:44;;;;;;;6.53;5.60;;;4.90;99.90;;;;;;5045158;28;20122;-43
2022/04/01 12:28:16;;;;;;;7.70;5.47;;;5.00;99.90;;;;;;5045555;28;20500;-43
2022/04/01 12:30:52;;;;;;;7.95;5.65;;;5.00;99.90;;;;;;5045025;28;20028;-43
2022/04/01 12:33:31;;;;;;;8.63;5.43;;;5.10;99.90;;;;;;5045245;28;20025;-43
2022/04/01 12:36:01;;;;;;;8.27;5.38;;;5.20;99.90;;;;;;5045492;28;20036;-44
2022/04/01 12:38:29;;;;;;;8.90;5.60;;;5.20;99.90;;;;;;5045147;28;20499;-42
2022/04/01 12:40:57;;;;;;;7.53;5.40;;;5.20;99.90;;;;;;5044027;28;20048;-44
2022/04/01 12:43:45;;;;;;;7.10;5.30;;;5.20;99.90;;;;;;5045581;28;20511;-44
2022/04/01 12:46:19;;;;;;;7.25;5.35;;;5.10;99.90;;;;;;5025438;28;20029;-42
2022/04/01 12:48:53;;;;;;;9.23;5.72;;;5.10;99.90;;;;;;5042674;28;20025;-43
2022/04/01 12:51:29;;;;;;;8.38;5.30;;;5.10;99.90;;;;;;5045907;28;20091;-43
2022/04/01 12:54:03;;;;;;;8.35;5.63;;;5.00;99.90;;;;;;5043172;28;20025;-44
2022/04/01 12:56:34;;;;;;;7.43;5.63;;;5.00;99.90;;;;;;5043909;28;20060;-44
2022/04/01 12:59:12;;;;;;;7.93;5.85;;;5.00;99.90;;;;;;5044496;28;20531;-46
2022/04/01 13:01:40;;;;;;;7.75;5.38;;;5.10;99.90;;;;;;5044781;28;20033;-44
2022/04/01 13:04:08;;;;;;;7.00;5.53;;;5.20;99.90;;;;;;5044947;28;20025;-43
2022/04/01 13:06:34;;;;;;;7.40;5.35;;;5.30;99.90;;;;;;5024515;28;20068;-43
2022/04/01 13:09:03;;;;;;;8.82;5.88;;;5.30;99.90;;;;;;5038409;28;20053;-49
2022/04/01 13:11:46;;;;;;;7.32;5.90;;;5.30;99.90;;;;;;5045114;28;20603;-44
2022/04/01 13:14:19;;;;;;;7.60;5.65;;;5.40;99.90;;;;;;5044169;28;20025;-44
2022/04/01 13:16:45;;;;;;;8.60;6.25;;;5.50;99.90;;;;;;5043830;28;20025;-43
2022/04/01 13:19:28;;;;;;;5.70;5.03;;;5.50;99.90;;;;;;5044628;28;20388;-44
2022/04/01 13:21:58;;;;;;;6.72;5.03;;;5.60;99.90;;;;;;5043971;28;20052;-44
2022/04/01 13:24:26;;;;;;;6.97;5.03;;;5.70;99.90;;;;;;5043533;28;20024;-44
2022/04/01 13:26:52;;;;;;;6.97;4.65;;;5.80;99.90;;;;;;5044586;28;20026;-44